createdAt,value
2017-11-18T00:01:45.690Z,53.33
2017-11-18T00:04:12.113Z,49.58
2017-11-18T00:06:38.532Z,52.40
2017-11-18T00:09:05.057Z,59.33
2017-11-18T00:11:31.498Z,48.58
2017-11-18T00:13:57.964Z,55.45
2017-11-18T00:16:24.393Z,54.92
2017-11-18T00:18:50.829Z,51.97
2017-11-18T00:21:17.294Z,45.42
2017-11-18T00:23:43.732Z,49.00
2017-11-18T00:26:10.180Z,48.97
2017-11-18T00:28:36.585Z,47.88
2017-11-18T00:31:03.152Z,48.40
2017-11-18T00:33:29.623Z,44.30
2017-11-18T00:35:56.857Z,49.83
2017-11-18T00:38:23.384Z,50.45
2017-11-18T00:40:49.873Z,60.65
2017-11-18T00:43:16.330Z,53.35
2017-11-18T00:45:42.732Z,50.60
2017-11-18T00:48:09.903Z,54.50
2017-11-18T00:50:36.404Z,53.90
2017-11-18T00:53:02.824Z,48.87
2017-11-18T00:55:29.430Z,52.30
2017-11-18T00:57:55.929Z,47.65
2017-11-18T01:00:22.426Z,53.97
2017-11-18T01:02:48.849Z,52.28
2017-11-18T01:05:15.288Z,51.92
2017-11-18T01:07:41.907Z,54.50
2017-11-18T01:10:09.131Z,56.45
2017-11-18T01:12:35.629Z,53.20
2017-11-18T01:15:02.054Z,56.83
2017-11-18T01:17:28.448Z,47.35
2017-11-18T01:19:54.916Z,53.53
2017-11-18T01:22:22.110Z,45.85
2017-11-18T01:24:48.533Z,49.90
2017-11-18T01:27:14.946Z,43.55
2017-11-18T01:29:42.127Z,61.50
2017-11-18T01:32:08.539Z,58.38
2017-11-18T01:34:35.717Z,45.60
2017-11-18T01:37:02.286Z,43.67
2017-11-18T01:39:28.808Z,45.00
2017-11-18T01:41:55.262Z,44.10
2017-11-18T01:44:21.679Z,49.28
2017-11-18T01:46:48.153Z,46.17
2017-11-18T01:49:14.639Z,52.90
2017-11-18T01:51:41.830Z,49.92
2017-11-18T01:54:08.366Z,54.30
2017-11-18T01:56:34.832Z,44.80
2017-11-18T01:59:01.252Z,53.75
2017-11-18T02:01:27.741Z,56.55
2017-11-18T02:03:54.153Z,52.53
2017-11-18T02:06:20.612Z,52.47
2017-11-18T02:08:47.000Z,59.30
2017-11-18T02:11:13.534Z,46.37
2017-11-18T02:13:39.952Z,55.42
2017-11-18T02:16:07.157Z,66.45
2017-11-18T02:18:33.584Z,67.22
2017-11-18T02:21:00.029Z,71.72
2017-11-18T02:23:26.465Z,64.60
2017-11-18T02:25:52.876Z,70.40
2017-11-18T02:28:19.337Z,65.35
2017-11-18T02:30:45.991Z,79.82
2017-11-18T02:33:12.438Z,68.40
2017-11-18T02:35:38.866Z,58.22
2017-11-18T02:38:05.301Z,89.87
2017-11-18T02:40:31.726Z,90.85
2017-11-18T02:42:58.270Z,85.40
2017-11-18T02:45:24.700Z,86.95
2017-11-18T02:47:51.127Z,77.43
2017-11-18T02:50:17.561Z,78.70
2017-11-18T02:52:43.966Z,79.90
2017-11-18T02:55:10.350Z,64.60
2017-11-18T02:57:36.784Z,80.80
2017-11-18T03:00:03.274Z,75.05
2017-11-18T03:02:29.726Z,78.70
2017-11-18T03:04:56.878Z,102.03
2017-11-18T03:07:23.347Z,98.12
2017-11-18T03:09:49.754Z,76.18
2017-11-18T03:12:16.206Z,63.47
2017-11-18T03:14:43.423Z,39.35
2017-11-18T03:17:09.861Z,67.62
2017-11-18T03:19:36.313Z,86.75
2017-11-18T03:22:02.730Z,76.20
2017-11-18T03:24:29.174Z,85.45
2017-11-18T03:26:55.597Z,67.18
2017-11-18T03:29:21.965Z,57.58
2017-11-18T03:31:48.384Z,60.15
2017-11-18T03:34:14.796Z,75.28
2017-11-18T03:36:41.225Z,63.03
2017-11-18T03:39:07.725Z,57.40
2017-11-18T03:41:34.144Z,56.22
2017-11-18T03:44:00.581Z,46.42
2017-11-18T03:46:27.007Z,67.62
2017-11-18T03:48:53.462Z,57.72
2017-11-18T03:51:19.900Z,66.35
2017-11-18T03:53:46.300Z,56.75
2017-11-18T03:56:12.769Z,64.47
2017-11-18T03:58:39.284Z,61.53
2017-11-18T04:01:05.719Z,60.28
2017-11-18T04:03:32.148Z,55.75
2017-11-18T04:05:58.575Z,41.00
2017-11-18T04:08:25.967Z,50.05
2017-11-18T04:10:52.368Z,58.00
2017-11-18T04:13:19.545Z,64.05
2017-11-18T04:15:46.127Z,58.33
2017-11-18T04:18:12.590Z,54.92
2017-11-18T04:20:39.044Z,55.20
2017-11-18T04:23:06.229Z,63.10
2017-11-18T04:25:32.697Z,33.67
2017-11-18T04:27:59.131Z,43.72
2017-11-18T04:30:25.569Z,43.50
2017-11-18T04:32:52.030Z,47.42
2017-11-18T04:35:18.493Z,29.98
2017-11-18T04:37:45.816Z,37.35
2017-11-18T04:40:12.263Z,35.90
2017-11-18T04:42:38.739Z,33.78
2017-11-18T04:45:05.892Z,40.58
2017-11-18T04:47:33.071Z,43.22
2017-11-18T04:49:59.669Z,38.83
2017-11-18T04:52:26.117Z,39.53
2017-11-18T04:54:53.328Z,34.75
2017-11-18T04:57:19.801Z,33.05
2017-11-18T04:59:47.006Z,29.23
2017-11-18T05:02:13.406Z,41.80
2017-11-18T05:04:40.581Z,31.75
2017-11-18T05:07:07.017Z,31.87
2017-11-18T05:09:33.448Z,45.03
2017-11-18T05:12:01.769Z,38.63
2017-11-18T05:14:28.161Z,24.10
2017-11-18T05:16:55.361Z,36.40
2017-11-18T05:19:21.800Z,36.40
2017-11-18T05:21:48.231Z,49.53
2017-11-18T05:24:14.705Z,33.20
2017-11-18T05:26:41.101Z,30.58
2017-11-18T05:29:07.556Z,29.98
2017-11-18T05:31:34.013Z,34.33
2017-11-18T05:34:00.433Z,36.53
2017-11-18T05:36:26.837Z,30.98
2017-11-18T05:38:54.006Z,28.10
2017-11-18T05:41:20.474Z,44.45
2017-11-18T05:43:46.879Z,40.90
2017-11-18T05:46:13.333Z,44.15
2017-11-18T05:48:39.837Z,52.95
2017-11-18T05:51:06.984Z,38.80
2017-11-18T05:53:33.436Z,46.50
2017-11-18T05:55:59.894Z,43.42
2017-11-18T05:58:26.356Z,38.85
2017-11-18T06:00:52.751Z,59.50
2017-11-18T06:03:19.911Z,47.92
2017-11-18T06:05:47.104Z,72.82
2017-11-18T06:08:13.558Z,43.72
2017-11-18T06:10:40.173Z,48.55
2017-11-18T06:13:06.618Z,44.95
2017-11-18T06:15:33.045Z,49.58
2017-11-18T06:17:59.474Z,54.67
2017-11-18T06:20:25.946Z,55.33
2017-11-18T06:22:52.360Z,63.92
2017-11-18T06:25:18.777Z,50.60
2017-11-18T06:27:46.114Z,49.95
2017-11-18T06:30:13.285Z,47.40
2017-11-18T06:32:39.785Z,38.35
2017-11-18T06:35:06.255Z,36.53
2017-11-18T06:37:33.556Z,20.98
2017-11-18T06:40:00.049Z,38.53
2017-11-18T06:42:27.209Z,49.80
2017-11-18T06:44:54.625Z,46.95
2017-11-18T06:47:22.076Z,38.92
2017-11-18T06:49:48.531Z,40.50
2017-11-18T06:52:14.950Z,49.85
2017-11-18T06:54:41.381Z,38.53
2017-11-18T06:57:08.014Z,37.20
2017-11-18T06:59:34.462Z,43.53
2017-11-18T07:02:01.658Z,43.92
2017-11-18T07:04:28.078Z,32.50
2017-11-18T07:06:54.520Z,41.85
2017-11-18T07:12:14.072Z,34.45
2017-11-18T07:14:40.506Z,43.08
2017-11-18T07:17:06.925Z,36.95
2017-11-18T07:19:34.107Z,31.30
2017-11-18T07:22:00.540Z,32.47
2017-11-18T07:24:26.955Z,34.58
2017-11-18T07:26:54.206Z,49.70
2017-11-18T07:29:21.395Z,39.17
2017-11-18T07:31:47.958Z,40.97
2017-11-18T07:34:14.484Z,37.58
2017-11-18T07:36:40.956Z,38.10
2017-11-18T07:39:07.514Z,34.95
2017-11-18T07:41:34.045Z,32.13
2017-11-18T07:44:00.462Z,28.12
2017-11-18T07:46:26.897Z,24.75
2017-11-18T07:49:14.450Z,29.83
2017-11-18T07:51:40.886Z,26.60
2017-11-18T07:54:07.325Z,28.02
2017-11-18T07:56:33.801Z,27.65
2017-11-18T07:59:00.249Z,18.98
2017-11-18T08:01:33.645Z,22.50
2017-11-18T08:04:00.094Z,28.08
2017-11-18T08:06:26.740Z,27.02
2017-11-18T08:08:53.421Z,24.17
2017-11-18T08:11:20.069Z,25.20
2017-11-18T08:13:49.156Z,30.62
2017-11-18T08:16:15.817Z,30.02
2017-11-18T08:18:42.312Z,33.53
2017-11-18T08:21:08.838Z,38.45
2017-11-18T08:23:35.298Z,36.40
2017-11-18T08:26:01.919Z,21.45
2017-11-18T08:28:28.370Z,23.05
2017-11-18T08:30:54.843Z,28.52
2017-11-18T08:33:21.296Z,30.15
2017-11-18T08:35:47.851Z,26.50
2017-11-18T08:38:15.020Z,26.35
2017-11-18T08:40:42.419Z,29.65
2017-11-18T08:43:08.882Z,27.87
2017-11-18T08:45:35.429Z,19.75
2017-11-18T08:48:02.084Z,24.85
2017-11-18T08:50:28.546Z,30.98
2017-11-18T08:52:55.026Z,31.02
2017-11-18T08:55:21.709Z,28.80
2017-11-18T08:57:48.875Z,30.92
2017-11-18T09:00:16.074Z,28.52
2017-11-18T09:02:42.537Z,41.35
2017-11-18T09:05:08.955Z,32.83
2017-11-18T09:07:35.536Z,26.08
2017-11-18T09:10:02.727Z,26.45
2017-11-18T09:12:29.623Z,28.33
2017-11-18T09:14:56.072Z,28.38
2017-11-18T09:17:22.585Z,28.92
2017-11-18T09:19:49.938Z,27.83
2017-11-18T09:22:16.358Z,31.55
2017-11-18T09:24:42.835Z,34.40
2017-11-18T09:27:09.345Z,25.35
2017-11-18T09:29:36.234Z,33.08
2017-11-18T09:32:03.436Z,35.83
2017-11-18T09:34:29.928Z,44.70
2017-11-18T09:39:22.060Z,35.20
2017-11-18T09:41:48.513Z,44.30
2017-11-18T09:44:14.970Z,36.67
2017-11-18T09:46:42.234Z,29.35
2017-11-18T09:49:09.424Z,30.60
2017-11-18T09:51:35.905Z,29.40
2017-11-18T09:54:02.320Z,36.80
2017-11-18T09:56:28.843Z,34.20
2017-11-18T09:58:55.275Z,35.60
2017-11-18T10:01:21.960Z,29.55
2017-11-18T10:03:48.949Z,28.05
2017-11-18T10:06:16.126Z,27.60
2017-11-18T10:08:42.662Z,31.67
2017-11-18T10:11:09.342Z,28.87
2017-11-18T10:13:35.833Z,28.20
2017-11-18T10:16:03.011Z,20.40
2017-11-18T10:18:29.429Z,26.12
2017-11-18T10:20:56.655Z,15.98
2017-11-18T10:23:23.103Z,20.12
2017-11-18T10:25:49.612Z,26.95
2017-11-18T10:28:16.006Z,29.48
2017-11-18T10:30:43.427Z,24.77
2017-11-18T10:33:10.081Z,26.70
2017-11-18T10:35:36.521Z,24.33
2017-11-18T10:38:03.362Z,25.92
2017-11-18T10:40:29.836Z,29.35
2017-11-18T10:42:57.122Z,30.00
2017-11-18T10:45:23.702Z,26.25
2017-11-18T10:47:50.204Z,26.17
2017-11-18T10:50:16.758Z,26.58
2017-11-18T10:52:43.432Z,23.80
2017-11-18T10:55:10.725Z,25.42
2017-11-18T10:57:37.175Z,20.52
2017-11-18T11:00:03.728Z,22.08
2017-11-18T11:02:30.472Z,18.67
2017-11-18T11:04:57.188Z,25.23
2017-11-18T11:07:24.055Z,19.87
2017-11-18T11:09:51.532Z,18.60
2017-11-18T11:12:18.504Z,20.65
2017-11-18T11:14:46.365Z,22.02
2017-11-18T11:17:12.840Z,20.45
2017-11-18T11:19:40.016Z,21.90
2017-11-18T11:22:07.253Z,21.80
2017-11-18T11:24:34.461Z,13.88
2017-11-18T11:27:01.001Z,24.90
2017-11-18T11:29:27.456Z,20.85
2017-11-18T11:31:53.904Z,23.17
2017-11-18T11:34:20.432Z,20.90
2017-11-18T11:36:46.901Z,10.27
2017-11-18T11:39:13.389Z,20.67
2017-11-18T11:41:40.006Z,21.90
2017-11-18T11:44:07.552Z,18.00
2017-11-18T11:46:34.745Z,14.45
2017-11-18T11:49:01.214Z,19.00
2017-11-18T11:51:27.736Z,20.58
2017-11-18T11:53:54.345Z,17.30
2017-11-18T11:56:22.054Z,17.27
2017-11-18T11:58:49.225Z,18.65
2017-11-18T12:01:15.838Z,20.30
2017-11-18T12:03:42.466Z,22.20
2017-11-18T12:06:08.910Z,21.00
2017-11-18T12:08:35.391Z,18.83
2017-11-18T12:11:01.945Z,19.33
2017-11-18T12:13:28.401Z,20.67
2017-11-18T12:15:55.618Z,14.00
2017-11-18T12:18:22.106Z,14.87
2017-11-18T12:20:49.374Z,18.62
2017-11-18T12:23:15.818Z,14.73
2017-11-18T12:25:42.489Z,15.88
2017-11-18T12:28:08.954Z,16.02
2017-11-18T12:30:36.879Z,16.40
2017-11-18T12:33:03.331Z,15.30
2017-11-18T12:35:29.766Z,12.43
2017-11-18T12:37:56.264Z,10.52
2017-11-18T12:40:24.459Z,15.38
2017-11-18T12:42:50.937Z,12.45
2017-11-18T12:45:17.384Z,14.68
2017-11-18T12:47:44.108Z,13.90
2017-11-18T12:50:10.670Z,13.32
2017-11-18T12:52:37.143Z,13.95
2017-11-18T12:55:03.590Z,13.73
2017-11-18T12:57:30.929Z,11.02
2017-11-18T12:59:57.650Z,14.43
2017-11-18T13:02:25.674Z,16.20
2017-11-18T13:04:53.323Z,16.05
2017-11-18T13:07:20.008Z,15.68
2017-11-18T13:09:46.656Z,11.05
2017-11-18T13:12:17.081Z,18.77
2017-11-18T13:14:43.707Z,14.07
2017-11-18T13:17:10.965Z,15.30
2017-11-18T13:19:37.507Z,13.05
2017-11-18T13:22:04.091Z,16.80
2017-11-18T13:24:30.741Z,8.30
2017-11-18T13:26:57.207Z,12.88
2017-11-18T13:29:24.568Z,11.35
2017-11-18T13:31:51.282Z,9.05
2017-11-18T13:34:17.989Z,13.05
2017-11-18T13:36:44.601Z,9.05
2017-11-18T13:39:12.204Z,11.12
2017-11-18T13:41:38.836Z,10.30
2017-11-18T13:44:05.357Z,8.00
2017-11-18T13:46:32.975Z,10.60
2017-11-18T13:48:59.659Z,11.25
2017-11-18T13:51:27.036Z,11.30
2017-11-18T13:53:53.530Z,10.38
2017-11-18T13:56:20.026Z,10.70
2017-11-18T13:58:46.540Z,8.68
2017-11-18T14:01:13.752Z,14.18
2017-11-18T14:03:40.236Z,9.70
2017-11-18T14:06:06.845Z,9.68
2017-11-18T14:08:33.341Z,13.45
2017-11-18T14:10:59.894Z,16.70
2017-11-18T14:13:26.384Z,20.58
2017-11-18T14:15:52.836Z,12.10
2017-11-18T14:18:19.331Z,12.13
2017-11-18T14:20:45.797Z,12.98
2017-11-18T14:23:12.292Z,11.07
2017-11-18T14:25:38.718Z,10.55
2017-11-18T14:28:05.185Z,11.65
2017-11-18T14:30:31.706Z,7.28
2017-11-18T14:32:58.561Z,10.80
2017-11-18T14:35:25.025Z,8.50
2017-11-18T14:37:52.510Z,10.60
2017-11-18T14:40:20.409Z,12.15
2017-11-18T14:42:47.610Z,11.88
2017-11-18T14:45:14.125Z,9.48
2017-11-18T14:47:40.779Z,20.27
2017-11-18T14:50:07.543Z,9.40
2017-11-18T14:52:34.054Z,13.20
2017-11-18T14:55:00.601Z,15.20
2017-11-18T14:57:27.079Z,13.18
2017-11-18T14:59:53.586Z,12.18
2017-11-18T15:02:20.025Z,15.38
2017-11-18T15:04:46.678Z,11.10
2017-11-18T15:07:13.188Z,13.62
2017-11-18T15:09:39.789Z,11.02
2017-11-18T15:12:09.316Z,8.63
2017-11-18T15:14:53.523Z,11.95
2017-11-18T15:17:26.081Z,14.65
2017-11-18T15:19:59.533Z,8.77
2017-11-18T15:22:29.694Z,10.20
2017-11-18T15:25:11.940Z,8.20
2017-11-18T15:27:53.374Z,9.95
2017-11-18T15:30:35.118Z,12.10
2017-11-18T15:33:06.558Z,16.02
2017-11-18T15:35:39.154Z,15.40
2017-11-18T15:38:20.630Z,14.50
2017-11-18T15:40:47.240Z,13.35
2017-11-18T15:43:18.696Z,14.38
2017-11-18T15:45:45.117Z,8.27
2017-11-18T15:48:17.754Z,17.00
2017-11-18T15:50:48.017Z,14.68
2017-11-18T15:53:32.590Z,12.98
2017-11-18T15:56:05.129Z,8.82
2017-11-18T15:58:47.540Z,16.80
2017-11-18T16:01:20.062Z,11.18
2017-11-18T16:03:47.297Z,10.38
2017-11-18T16:06:13.765Z,12.68
2017-11-18T16:08:40.309Z,12.20
2017-11-18T16:11:06.860Z,8.90
2017-11-18T16:13:33.330Z,12.77
2017-11-18T16:16:00.987Z,9.93
2017-11-18T16:18:27.823Z,5.50
2017-11-18T16:20:55.025Z,8.73
2017-11-18T16:23:21.472Z,16.27
2017-11-18T16:25:48.045Z,9.13
2017-11-18T16:28:14.546Z,13.07
2017-11-18T16:30:41.077Z,12.90
2017-11-18T16:33:07.572Z,7.68
2017-11-18T16:35:34.888Z,11.00
2017-11-18T16:38:02.114Z,5.90
2017-11-18T16:40:28.599Z,10.77
2017-11-18T16:42:55.390Z,7.30
2017-11-18T16:45:23.876Z,7.60
2017-11-18T16:47:50.585Z,11.32
2017-11-18T16:50:17.424Z,9.50
2017-11-18T16:52:44.291Z,7.90
2017-11-18T16:55:11.902Z,10.73
2017-11-18T16:57:38.502Z,11.25
2017-11-18T17:00:05.340Z,5.87
2017-11-18T17:02:32.193Z,14.43
2017-11-18T17:04:59.683Z,12.52
2017-11-18T17:07:26.561Z,8.07
2017-11-18T17:09:53.586Z,10.82
2017-11-18T17:12:20.296Z,7.62
2017-11-18T17:14:47.189Z,9.77
2017-11-18T17:17:13.901Z,9.43
2017-11-18T17:19:41.482Z,11.95
2017-11-18T17:22:08.446Z,11.75
2017-11-18T17:24:35.146Z,11.55
2017-11-18T17:27:01.981Z,10.55
2017-11-18T17:29:29.044Z,6.00
2017-11-18T17:31:56.087Z,7.75
2017-11-18T17:34:22.862Z,11.15
2017-11-18T17:36:51.168Z,7.35
2017-11-18T17:39:18.029Z,7.72
2017-11-18T17:41:45.334Z,9.85
2017-11-18T17:44:13.675Z,13.30
2017-11-18T17:46:40.628Z,13.32
2017-11-18T17:49:07.400Z,8.55
2017-11-18T17:51:33.852Z,8.15
2017-11-18T17:54:00.395Z,8.57
2017-11-18T17:56:26.922Z,7.55
2017-11-18T17:58:53.492Z,7.93
2017-11-18T18:01:20.804Z,10.45
2017-11-18T18:03:47.324Z,13.90
2017-11-18T18:06:13.837Z,9.55
2017-11-18T18:08:41.168Z,10.20
2017-11-18T18:11:07.712Z,5.93
2017-11-18T18:13:34.287Z,11.63
2017-11-18T18:16:00.893Z,10.57
2017-11-18T18:18:27.418Z,7.35
2017-11-18T18:20:53.831Z,8.70
2017-11-18T18:23:20.372Z,5.87
2017-11-18T18:25:46.889Z,6.87
2017-11-18T18:28:13.574Z,8.60
2017-11-18T18:30:40.241Z,12.68
2017-11-18T18:33:07.823Z,7.82
2017-11-18T18:35:35.124Z,7.87
2017-11-18T18:38:02.301Z,16.95
2017-11-18T18:40:28.763Z,4.65
2017-11-18T18:42:55.277Z,12.23
2017-11-18T18:45:21.824Z,10.55
2017-11-18T18:47:48.455Z,8.23
2017-11-18T18:50:16.050Z,12.15
2017-11-18T18:52:43.286Z,10.07
2017-11-18T18:55:09.744Z,11.32
2017-11-18T18:57:36.383Z,12.35
2017-11-18T19:00:03.091Z,6.25
2017-11-18T19:02:29.889Z,12.93
2017-11-18T19:04:57.230Z,11.50
2017-11-18T19:07:23.930Z,6.80
2017-11-18T19:09:50.441Z,10.52
2017-11-18T19:12:17.010Z,5.53
2017-11-18T19:14:43.506Z,13.73
2017-11-18T19:17:10.026Z,5.95
2017-11-18T19:19:36.493Z,10.40
2017-11-18T19:22:02.984Z,19.08
2017-11-18T19:24:29.470Z,6.78
2017-11-18T19:26:55.942Z,11.30
2017-11-18T19:29:23.172Z,12.13
2017-11-18T19:31:49.646Z,10.65
2017-11-18T19:34:16.312Z,11.70
2017-11-18T19:36:42.795Z,14.10
2017-11-18T19:39:16.132Z,13.38
2017-11-18T19:41:42.698Z,10.27
2017-11-18T19:44:09.246Z,8.88
2017-11-18T19:46:35.793Z,8.90
2017-11-18T19:49:02.301Z,12.05
2017-11-18T19:51:28.848Z,7.75
2017-11-18T19:53:55.393Z,11.23
2017-11-18T19:56:22.020Z,10.32
2017-11-18T19:58:48.518Z,14.25
2017-11-18T20:01:15.089Z,5.00
2017-11-18T20:03:41.654Z,7.60
2017-11-18T20:06:08.872Z,12.77
2017-11-18T20:08:36.057Z,14.82
2017-11-18T20:11:02.569Z,23.27
2017-11-18T20:13:30.162Z,12.37
2017-11-18T20:15:56.677Z,14.00
2017-11-18T20:18:24.219Z,16.90
2017-11-18T20:20:51.462Z,14.55
2017-11-18T20:23:18.064Z,14.90
2017-11-18T20:25:44.601Z,11.90
2017-11-18T20:28:11.042Z,11.05
2017-11-18T20:30:37.590Z,11.88
2017-11-18T20:33:04.160Z,8.90
2017-11-18T20:35:30.673Z,13.77
2017-11-18T20:37:57.263Z,23.10
2017-11-18T20:40:24.635Z,19.62
2017-11-18T20:42:52.081Z,15.70
2017-11-18T20:45:18.630Z,10.32
2017-11-18T20:47:45.169Z,10.23
2017-11-18T20:50:11.651Z,14.95
2017-11-18T20:52:38.177Z,8.98
2017-11-18T20:55:04.695Z,10.93
2017-11-18T20:57:32.010Z,5.78
2017-11-18T20:59:58.538Z,6.28
2017-11-18T21:02:25.179Z,6.28
2017-11-18T21:04:51.741Z,4.90
2017-11-18T21:07:18.961Z,6.57
2017-11-18T21:09:45.515Z,7.78
2017-11-18T21:12:12.055Z,10.02
2017-11-18T21:14:38.669Z,9.98
2017-11-18T21:17:05.978Z,11.30
2017-11-18T21:19:32.494Z,5.85
2017-11-18T21:21:58.960Z,5.28
2017-11-18T21:24:25.511Z,5.78
2017-11-18T21:26:52.129Z,5.45
2017-11-18T21:29:18.597Z,7.72
2017-11-18T21:31:45.168Z,9.75
2017-11-18T21:34:12.525Z,9.18
2017-11-18T21:36:40.307Z,3.78
2017-11-18T21:39:06.828Z,6.78
2017-11-18T21:41:34.278Z,16.23
2017-11-18T21:44:00.821Z,8.00
2017-11-18T21:46:27.345Z,10.00
2017-11-18T21:48:53.875Z,11.77
2017-11-18T21:51:20.358Z,8.98
2017-11-18T21:53:47.672Z,10.65
2017-11-18T21:56:14.216Z,11.27
2017-11-18T21:58:40.776Z,8.15
2017-11-18T22:01:07.247Z,9.93
2017-11-18T22:03:34.560Z,6.43
2017-11-18T22:06:01.086Z,12.82
2017-11-18T22:08:27.550Z,8.95
2017-11-18T22:10:55.658Z,8.98
2017-11-18T22:13:22.864Z,6.15
2017-11-18T22:15:49.370Z,8.65
2017-11-18T22:18:15.785Z,7.45
2017-11-18T22:20:43.018Z,12.35
2017-11-18T22:23:09.594Z,8.60
2017-11-18T22:25:36.103Z,10.65
2017-11-18T22:28:02.610Z,7.43
2017-11-18T22:30:29.122Z,6.57
2017-11-18T22:32:56.437Z,7.12
2017-11-18T22:35:23.655Z,6.62
2017-11-18T22:37:50.224Z,9.38
2017-11-18T22:40:17.004Z,6.50
2017-11-18T22:42:44.237Z,7.12
2017-11-18T22:45:10.915Z,11.82
2017-11-18T22:47:37.405Z,7.87
2017-11-18T22:50:03.879Z,4.30
2017-11-18T22:52:30.525Z,6.97
2017-11-18T22:54:57.721Z,11.35
2017-11-18T22:57:24.337Z,4.22
2017-11-18T22:59:51.559Z,4.43
2017-11-18T23:02:18.006Z,7.18
2017-11-18T23:04:44.544Z,7.03
2017-11-18T23:07:10.995Z,8.10
2017-11-18T23:09:37.602Z,8.50
2017-11-18T23:12:04.184Z,6.68
2017-11-18T23:14:31.389Z,8.98
2017-11-18T23:16:58.063Z,7.40
2017-11-18T23:19:24.509Z,7.72
2017-11-18T23:21:51.002Z,6.55
2017-11-18T23:24:17.445Z,6.75
2017-11-18T23:26:43.907Z,11.05
2017-11-18T23:29:10.386Z,9.13
2017-11-18T23:31:37.658Z,10.30
2017-11-18T23:34:04.258Z,12.85
2017-11-18T23:36:30.773Z,8.18
2017-11-18T23:38:57.303Z,7.95
2017-11-18T23:41:23.733Z,9.82
2017-11-18T23:43:50.394Z,9.10
2017-11-18T23:46:16.860Z,5.35
2017-11-18T23:48:43.308Z,9.70
2017-11-18T23:51:09.841Z,8.88
2017-11-18T23:53:36.305Z,8.27
2017-11-18T23:56:03.495Z,13.85
2017-11-18T23:58:30.137Z,6.90
